Time;durP1;ratioP1;P1;durP2;ratioP2;P2;SDS_P1;SDS_P2;PMS_P1;PMS_P2;Temp;Humidity;BMP_temperature;BMP_pressure;BME280_temperature;BME280_humidity;BME280_pressure;Samples;Min_cycle;Max_cycle;Signal;HPM_P1;HPM_P2
2022/03/20 00:00:13;;;;;;;21.50;10.90;;;;;;;4.35;41.58;103422.00;5104525;28;20089;-65
2022/03/20 00:02:40;;;;;;;22.67;10.73;;;;;;;4.19;41.63;103412.19;5102528;28;20290;-65
2022/03/20 00:05:07;;;;;;;21.15;11.18;;;;;;;4.09;41.88;103426.75;5105131;28;20077;-65
2022/03/20 00:07:34;;;;;;;24.13;12.30;;;;;;;4.29;41.74;103412.34;5107754;28;20075;-65
2022/03/20 00:10:00;;;;;;;20.17;10.63;;;;;;;4.21;41.65;103403.56;5097054;28;20054;-66
2022/03/20 00:12:28;;;;;;;17.95;10.15;;;;;;;4.24;41.37;103397.56;5110262;28;20070;-66
2022/03/20 00:14:54;;;;;;;19.08;11.02;;;;;;;4.34;41.56;103399.47;5109880;27;20492;-66
2022/03/20 00:17:21;;;;;;;16.42;8.85;;;;;;;4.30;40.95;103395.06;5107896;27;20120;-65
2022/03/20 00:19:48;;;;;;;21.77;12.27;;;;;;;4.12;42.10;103400.81;5109951;27;20650;-66
2022/03/20 00:22:15;;;;;;;21.98;9.73;;;;;;;4.14;41.96;103403.47;5103634;27;20048;-66
2022/03/20 00:24:42;;;;;;;26.52;11.63;;;;;;;4.16;42.10;103406.94;5107921;28;20092;-66
2022/03/20 00:27:09;;;;;;;23.02;10.75;;;;;;;3.92;42.39;103400.47;5105219;28;20093;-66
2022/03/20 00:29:36;;;;;;;22.92;11.57;;;;;;;4.01;42.46;103393.69;5097612;27;20052;-66
2022/03/20 00:32:03;;;;;;;20.88;10.30;;;;;;;3.93;42.54;103391.84;5101066;28;20059;-66
2022/03/20 00:34:30;;;;;;;18.50;9.60;;;;;;;3.96;42.21;103396.19;5101683;28;20094;-72
2022/03/20 00:36:56;;;;;;;23.23;11.85;;;;;;;3.96;42.48;103405.69;5108729;27;20040;-72
2022/03/20 00:39:23;;;;;;;21.85;11.02;;;;;;;3.72;42.78;103400.97;5105512;27;20047;-72
2022/03/20 00:41:49;;;;;;;17.40;9.95;;;;;;;4.11;42.24;103393.00;5109565;27;20047;-73
2022/03/20 00:44:15;;;;;;;19.00;9.82;;;;;;;4.07;42.20;103396.38;5104926;28;20052;-72
2022/03/20 00:46:43;;;;;;;26.10;12.43;;;;;;;4.12;42.35;103392.16;5103023;28;20044;-72
2022/03/20 00:49:10;;;;;;;22.92;11.25;;;;;;;3.75;42.95;103391.50;5101227;28;20444;-72
2022/03/20 00:51:37;;;;;;;24.33;12.05;;;;;;;3.69;43.37;103386.22;5102425;27;20112;-73
2022/03/20 00:54:03;;;;;;;25.60;12.35;;;;;;;3.79;42.96;103403.69;5108737;27;20055;-73
2022/03/20 00:56:30;;;;;;;23.67;12.75;;;;;;;3.89;43.13;103390.03;5100911;27;20044;-73
2022/03/20 00:58:56;;;;;;;26.75;11.55;;;;;;;3.83;42.74;103384.75;5106895;28;20075;-73
2022/03/20 01:01:22;;;;;;;19.25;10.73;;;;;;;3.69;43.21;103380.16;5110036;28;20077;-73
2022/03/20 01:03:51;;;;;;;21.05;10.70;;;;;;;3.63;43.30;103386.06;5106348;27;20124;-73
2022/03/20 01:06:18;;;;;;;23.95;12.35;;;;;;;3.83;43.11;103379.56;5107230;27;20642;-73
2022/03/20 01:08:44;;;;;;;23.33;11.88;;;;;;;3.82;42.89;103383.00;5096582;27;20108;-73
2022/03/20 01:11:11;;;;;;;21.77;9.90;;;;;;;3.62;43.43;103384.31;5099219;27;20055;-73
2022/03/20 01:13:37;;;;;;;25.17;11.52;;;;;;;3.60;43.11;103383.44;5110505;27;20058;-73
2022/03/20 01:16:04;;;;;;;23.15;11.18;;;;;;;3.55;43.58;103373.84;5106890;28;20381;-73
2022/03/20 01:18:30;;;;;;;26.55;13.25;;;;;;;3.53;43.82;103378.97;5089403;28;20048;-73
2022/03/20 01:20:58;;;;;;;23.48;12.55;;;;;;;3.53;43.35;103371.19;5089954;28;20078;-73
2022/03/20 01:23:25;;;;;;;24.00;12.73;;;;;;;3.44;43.63;103374.47;5091693;28;20052;-73
2022/03/20 01:25:52;;;;;;;19.77;11.68;;;;;;;3.18;43.84;103367.03;5100570;28;20090;-73
2022/03/20 01:28:20;;;;;;;27.23;12.65;;;;;;;3.43;43.84;103356.31;5109327;27;20510;-73
2022/03/20 01:30:47;;;;;;;18.88;10.77;;;;;;;3.40;43.84;103356.22;5108496;27;20039;-73
2022/03/20 01:33:14;;;;;;;17.10;8.88;;;;;;;3.53;43.72;103347.84;5115623;27;20039;-73
2022/03/20 01:35:40;;;;;;;23.70;12.32;;;;;;;3.44;44.02;103345.06;5106132;28;20051;-73
2022/03/20 01:38:08;;;;;;;24.15;11.38;;;;;;;3.63;43.80;103349.75;5110116;28;20059;-73
2022/03/20 01:40:36;;;;;;;22.35;10.88;;;;;;;3.48;43.82;103349.47;5108877;28;20745;-73
2022/03/20 01:43:03;;;;;;;18.05;9.80;;;;;;;3.49;43.45;103348.63;5110066;27;20044;-73
2022/03/20 01:45:30;;;;;;;20.13;9.32;;;;;;;3.52;43.57;103350.41;5105830;28;20503;-73
2022/03/20 01:47:56;;;;;;;23.67;11.88;;;;;;;3.51;43.93;103348.69;5110171;28;20124;-73
2022/03/20 01:50:25;;;;;;;20.75;10.70;;;;;;;3.48;43.41;103341.69;5108505;28;20097;-73
2022/03/20 01:52:53;;;;;;;23.40;12.15;;;;;;;3.58;43.63;103346.22;5109771;28;20487;-73
2022/03/20 01:55:24;;;;;;;20.85;11.32;;;;;;;3.73;43.17;103346.47;5110149;28;20100;-73
2022/03/20 01:57:51;;;;;;;23.08;12.68;;;;;;;3.61;43.13;103332.44;5102388;28;20092;-73
2022/03/20 02:00:19;;;;;;;23.65;11.95;;;;;;;3.54;43.11;103334.03;5109816;27;20047;-73
2022/03/20 02:02:46;;;;;;;23.77;11.85;;;;;;;3.50;43.35;103332.22;5101804;28;20047;-73
2022/03/20 02:05:13;;;;;;;23.20;11.57;;;;;;;3.42;43.61;103331.22;5110096;27;20100;-73
2022/03/20 02:07:42;;;;;;;26.10;12.02;;;;;;;3.74;42.96;103324.00;5107038;28;20043;-73
2022/03/20 02:10:10;;;;;;;19.27;10.77;;;;;;;3.70;42.91;103323.06;5101572;28;20419;-73
2022/03/20 02:12:39;;;;;;;29.27;11.15;;;;;;;3.68;43.10;103321.31;5108506;28;20492;-73
2022/03/20 02:15:09;;;;;;;21.15;10.40;;;;;;;3.69;42.80;103318.75;5103892;28;20097;-73
2022/03/20 02:17:36;;;;;;;22.52;12.55;;;;;;;3.63;42.90;103307.38;5109335;28;20058;-73
2022/03/20 02:20:08;;;;;;;25.20;11.20;;;;;;;3.50;42.89;103318.38;5105438;27;20052;-73
2022/03/20 02:22:38;;;;;;;29.08;13.55;;;;;;;3.44;43.24;103312.22;5089704;28;20044;-73
2022/03/20 02:25:06;;;;;;;23.38;12.30;;;;;;;3.72;42.35;103311.03;5103420;27;20446;-73
2022/03/20 02:27:38;;;;;;;22.50;11.50;;;;;;;3.60;42.64;103312.50;5109703;28;20043;-73
2022/03/20 02:30:12;;;;;;;17.75;9.02;;;;;;;3.86;41.93;103304.34;5098772;28;20047;-73
2022/03/20 02:32:40;;;;;;;23.00;12.48;;;;;;;3.83;42.61;103306.00;5101366;28;20056;-73
2022/03/20 02:35:11;;;;;;;25.80;12.77;;;;;;;4.02;42.30;103291.59;5100319;28;20098;-73
2022/03/20 02:37:40;;;;;;;24.60;13.07;;;;;;;3.99;42.17;103286.38;5107958;28;20047;-73
2022/03/20 02:40:07;;;;;;;24.52;11.98;;;;;;;4.13;41.93;103285.75;5106224;28;20060;-73
2022/03/20 02:42:34;;;;;;;26.80;12.40;;;;;;;4.24;42.03;103293.69;5108266;28;20047;-73
2022/03/20 02:45:03;;;;;;;23.55;12.43;;;;;;;4.39;41.79;103283.53;5108502;27;20047;-73
2022/03/20 02:47:31;;;;;;;28.17;12.60;;;;;;;4.16;42.19;103287.50;5106764;28;20495;-73
2022/03/20 02:50:03;;;;;;;29.15;13.38;;;;;;;4.04;42.71;103282.09;5100997;28;20045;-73
2022/03/20 02:52:42;;;;;;;21.15;11.93;;;;;;;3.92;42.72;103278.47;5102943;28;20056;-74
2022/03/20 02:55:10;;;;;;;23.05;11.57;;;;;;;3.77;42.63;103275.63;5104078;28;20082;-73
2022/03/20 02:57:36;;;;;;;24.02;12.73;;;;;;;4.05;42.42;103274.34;5116639;28;20073;-73
2022/03/20 03:00:05;;;;;;;29.63;13.15;;;;;;;4.19;42.39;103266.75;5107052;28;20120;-73
2022/03/20 03:02:36;;;;;;;24.08;11.98;;;;;;;3.76;43.21;103273.91;5109226;28;20051;-73
2022/03/20 03:05:03;;;;;;;26.55;13.05;;;;;;;3.78;43.45;103268.72;5109445;28;20047;-73
2022/03/20 03:07:32;;;;;;;26.48;12.43;;;;;;;3.70;43.65;103270.31;5107896;28;20541;-73
2022/03/20 03:12:44;;;;;;;27.45;13.18;;;;;;;3.75;43.40;103260.88;5089228;28;20522;-73
2022/03/20 03:15:20;;;;;;;29.35;12.98;;;;;;;3.75;43.28;103271.25;5090261;28;20074;-73
2022/03/20 03:17:47;;;;;;;25.10;12.50;;;;;;;3.60;43.74;103276.19;5105286;28;20036;-73
2022/03/20 03:20:14;;;;;;;24.40;12.43;;;;;;;3.56;43.92;103269.19;5102169;28;20040;-73
2022/03/20 03:22:40;;;;;;;24.98;12.73;;;;;;;3.72;43.69;103272.09;5107241;27;20495;-73
2022/03/20 03:25:07;;;;;;;22.42;12.05;;;;;;;3.81;43.04;103267.03;5107785;28;20039;-73
2022/03/20 03:27:34;;;;;;;25.70;12.98;;;;;;;3.82;43.09;103268.78;5109111;28;20048;-73
2022/03/20 03:30:02;;;;;;;27.95;12.02;;;;;;;3.70;43.21;103263.38;5098067;28;20523;-73
2022/03/20 03:32:28;;;;;;;25.33;11.88;;;;;;;3.61;42.84;103259.78;5109335;28;20419;-73
2022/03/20 03:37:38;;;;;;;27.40;13.00;;;;;;;3.26;43.22;103269.50;5106642;28;20407;-73
2022/03/20 03:40:07;;;;;;;28.13;13.15;;;;;;;3.04;43.54;103272.53;5107615;28;20071;-73
2022/03/20 03:42:34;;;;;;;20.67;10.23;;;;;;;2.97;43.59;103270.69;5108934;28;20072;-73
2022/03/20 03:45:02;;;;;;;20.30;9.77;;;;;;;2.96;43.89;103274.13;5108802;28;20051;-73
2022/03/20 03:47:28;;;;;;;27.75;13.43;;;;;;;2.91;44.06;103271.44;5111990;28;20043;-73
2022/03/20 03:49:55;;;;;;;22.30;10.30;;;;;;;2.91;43.56;103276.63;5096391;28;20044;-73
2022/03/20 03:52:22;;;;;;;21.73;9.93;;;;;;;2.61;44.07;103270.81;5092199;28;20478;-73
2022/03/20 03:54:48;;;;;;;25.35;11.88;;;;;;;2.83;43.89;103268.69;5109606;28;20044;-73
2022/03/20 03:57:15;;;;;;;28.38;13.45;;;;;;;2.78;43.91;103274.63;5091970;28;20044;-73
2022/03/20 03:59:41;;;;;;;26.58;12.65;;;;;;;2.94;43.92;103274.09;5072760;28;20094;-73
2022/03/20 04:02:09;;;;;;;24.17;12.10;;;;;;;3.01;43.72;103275.09;5071469;28;20045;-73
2022/03/20 04:04:35;;;;;;;21.88;11.15;;;;;;;3.08;43.47;103264.00;5089258;28;20048;-73
2022/03/20 04:07:01;;;;;;;25.10;12.77;;;;;;;2.97;43.80;103260.31;5084570;28;20048;-73
2022/03/20 04:09:28;;;;;;;23.60;12.38;;;;;;;3.04;43.78;103264.78;5071428;28;20055;-73
2022/03/20 04:11:54;;;;;;;26.58;13.52;;;;;;;2.87;43.84;103265.31;5090041;28;20044;-73
2022/03/20 04:14:21;;;;;;;22.77;12.32;;;;;;;2.78;44.23;103261.66;5090761;28;20052;-73
2022/03/20 04:16:47;;;;;;;21.85;10.38;;;;;;;2.49;44.27;103255.00;5092050;28;20047;-73
2022/03/20 04:19:15;;;;;;;25.48;13.68;;;;;;;2.93;43.87;103255.06;5089629;28;20465;-73
2022/03/20 04:21:42;;;;;;;23.42;10.98;;;;;;;2.75;44.19;103254.72;5091183;28;20125;-73
2022/03/20 04:24:09;;;;;;;23.25;13.00;;;;;;;2.93;44.06;103247.31;5091548;28;20043;-73
2022/03/20 04:26:35;;;;;;;35.20;13.48;;;;;;;3.19;43.66;103246.91;5090377;28;20553;-73
2022/03/20 04:29:02;;;;;;;26.75;12.70;;;;;;;3.17;44.16;103249.50;5094501;28;20044;-73
2022/03/20 04:31:29;;;;;;;27.38;14.00;;;;;;;3.28;43.77;103244.50;5090854;28;20040;-73
2022/03/20 04:33:56;;;;;;;19.30;10.50;;;;;;;3.15;43.85;103238.22;5091049;28;20126;-73
2022/03/20 04:36:27;;;;;;;25.92;12.75;;;;;;;3.02;44.24;103248.31;5086844;28;20044;-73
2022/03/20 04:38:55;;;;;;;28.50;14.23;;;;;;;2.79;44.51;103240.97;5082839;28;20127;-73
2022/03/20 04:41:23;;;;;;;29.65;13.27;;;;;;;2.94;44.32;103246.47;5076997;28;20135;-73
2022/03/20 04:43:50;;;;;;;26.33;13.80;;;;;;;2.94;44.09;103243.00;5094771;27;20048;-73
2022/03/20 04:46:18;;;;;;;28.05;13.07;;;;;;;3.11;43.94;103235.53;5087849;28;20028;-73
2022/03/20 04:59:41;;;;;;;22.88;10.38;;;;;;;3.22;44.36;103246.97;5087373;28;20071;-73
2022/03/20 05:02:07;;;;;;;27.15;13.70;;;;;;;3.34;44.22;103236.81;5087006;28;20071;-73
2022/03/20 05:04:34;;;;;;;28.95;14.35;;;;;;;3.22;44.23;103241.78;5087070;28;20052;-73
2022/03/20 05:07:01;;;;;;;28.65;13.40;;;;;;;3.38;44.08;103241.22;5080499;28;20480;-74
2022/03/20 05:14:57;;;;;;;53.63;12.98;;;;;;;3.20;44.42;103241.78;5103921;28;20043;-74
2022/03/20 05:17:23;;;;;;;32.95;13.57;;;;;;;3.02;44.52;103249.22;5100878;28;20064;-74
2022/03/20 05:19:49;;;;;;;27.98;13.65;;;;;;;3.09;44.82;103250.19;5095174;28;20044;-74
2022/03/20 05:22:20;;;;;;;29.10;14.13;;;;;;;3.28;44.40;103244.50;5105283;28;20089;-74
2022/03/20 05:24:47;;;;;;;25.83;12.68;;;;;;;3.03;44.72;103244.91;5108067;28;20044;-74
2022/03/20 05:27:13;;;;;;;22.75;10.30;;;;;;;2.65;45.27;103251.91;5097316;28;20040;-73
2022/03/20 05:29:40;;;;;;;26.30;13.40;;;;;;;2.73;45.42;103246.03;5108919;27;20048;-74
2022/03/20 05:32:08;;;;;;;25.98;12.73;;;;;;;2.41;46.15;103249.66;5108170;28;20517;-74
2022/03/20 05:34:35;;;;;;;22.42;11.10;;;;;;;2.40;45.86;103250.53;5094108;28;20508;-74
2022/03/20 05:37:01;;;;;;;24.75;12.23;;;;;;;2.82;45.10;103255.69;5106455;28;20105;-73
2022/03/20 05:39:29;;;;;;;23.92;12.45;;;;;;;2.78;45.14;103252.19;5107512;28;20055;-74
2022/03/20 05:41:56;;;;;;;29.85;13.48;;;;;;;2.91;44.93;103253.31;5107229;28;20059;-74
2022/03/20 05:44:24;;;;;;;24.13;12.05;;;;;;;2.80;44.97;103254.81;5109853;28;20043;-74
2022/03/20 05:46:52;;;;;;;29.02;14.80;;;;;;;2.67;45.35;103258.84;5097994;28;20044;-73
2022/03/20 05:49:20;;;;;;;24.58;10.75;;;;;;;2.73;45.40;103261.59;5107901;27;20097;-73
2022/03/20 05:51:47;;;;;;;23.67;12.52;;;;;;;2.72;45.46;103259.84;5110172;28;20043;-74
2022/03/20 05:54:15;;;;;;;23.83;10.63;;;;;;;2.50;45.82;103265.41;5100860;28;20097;-73
2022/03/20 05:59:28;;;;;;;21.15;10.05;;;;;;;2.71;45.68;103272.75;5092544;28;20085;-73
2022/03/20 06:01:55;;;;;;;25.52;12.45;;;;;;;3.07;44.86;103264.84;5100960;28;20043;-73
2022/03/20 06:04:22;;;;;;;28.40;15.80;;;;;;;2.83;45.52;103271.28;5104423;27;20266;-73
2022/03/20 06:06:49;;;;;;;32.17;15.13;;;;;;;2.87;45.77;103267.91;5104197;28;20069;-73
2022/03/20 06:09:16;;;;;;;23.55;13.00;;;;;;;3.32;44.20;103260.16;5107657;28;20129;-73
2022/03/20 06:11:44;;;;;;;24.08;13.57;;;;;;;2.93;45.25;103265.44;5108371;28;20044;-73
2022/03/20 06:14:10;;;;;;;22.77;11.05;;;;;;;3.17;44.84;103267.66;5106615;28;20105;-73
2022/03/20 06:16:37;;;;;;;22.25;11.82;;;;;;;3.75;43.91;103258.28;5107159;27;20101;-73
2022/03/20 06:19:06;;;;;;;33.55;14.95;;;;;;;3.86;43.83;103257.63;5102121;27;20036;-73
2022/03/20 06:21:33;;;;;;;29.27;14.60;;;;;;;3.62;44.12;103269.31;5108863;28;20142;-73
2022/03/20 06:23:59;;;;;;;31.60;15.13;;;;;;;3.99;43.40;103263.00;5108884;28;20039;-73
2022/03/20 06:26:25;;;;;;;31.00;15.13;;;;;;;4.09;43.22;103257.97;5108890;28;20044;-72
2022/03/20 06:28:53;;;;;;;29.30;14.07;;;;;;;4.14;43.49;103265.84;5103650;28;20499;-73
2022/03/20 06:31:20;;;;;;;27.52;12.98;;;;;;;4.29;42.64;103263.44;5108488;28;20112;-72
2022/03/20 06:33:47;;;;;;;31.58;14.93;;;;;;;4.51;42.71;103268.06;5096900;28;20032;-72
2022/03/20 06:36:14;;;;;;;29.05;15.52;;;;;;;4.85;42.27;103254.66;5105811;28;20086;-72
2022/03/20 06:38:41;;;;;;;31.42;15.80;;;;;;;5.00;41.32;103263.50;5101351;28;20115;-72
2022/03/20 06:41:09;;;;;;;31.52;16.40;;;;;;;5.18;41.53;103266.28;5106772;28;20059;-72
2022/03/20 06:43:36;;;;;;;21.35;12.32;;;;;;;4.78;41.32;103260.66;5102153;27;20044;-71
2022/03/20 06:46:05;;;;;;;24.95;15.30;;;;;;;5.24;41.06;103274.19;5097682;28;20050;-72
2022/03/20 06:48:31;;;;;;;25.23;14.38;;;;;;;4.80;41.31;103261.53;5102960;28;20051;-71
2022/03/20 06:50:58;;;;;;;30.52;16.30;;;;;;;5.06;41.63;103255.78;5103841;28;20116;-71
2022/03/20 06:53:24;;;;;;;22.98;12.90;;;;;;;5.21;41.06;103253.34;5108379;28;20051;-71
2022/03/20 06:55:51;;;;;;;34.58;16.27;;;;;;;5.18;40.74;103261.09;5109015;28;20071;-72
2022/03/20 06:58:18;;;;;;;24.38;13.43;;;;;;;5.54;40.64;103276.22;5107202;28;20047;-72
2022/03/20 07:00:45;;;;;;;31.35;16.25;;;;;;;5.32;40.96;103265.59;5105368;28;20097;-71
2022/03/20 07:03:13;;;;;;;26.17;14.20;;;;;;;5.64;40.62;103249.41;5108461;28;20135;-72
2022/03/20 07:05:40;;;;;;;32.10;15.85;;;;;;;6.02;39.90;103247.16;5105851;28;20099;-72
2022/03/20 07:08:07;;;;;;;27.67;13.73;;;;;;;6.28;39.23;103248.19;5102105;28;20050;-71
2022/03/20 07:10:35;;;;;;;24.10;13.45;;;;;;;6.26;39.35;103263.78;5104441;28;20058;-70
2022/03/20 07:15:47;;;;;;;23.38;13.82;;;;;;;5.94;39.71;103257.50;5097846;28;20471;-71
2022/03/20 07:18:18;;;;;;;25.60;14.48;;;;;;;6.51;38.48;103254.38;5108650;28;20503;-71
2022/03/20 07:20:46;;;;;;;27.95;13.90;;;;;;;6.54;38.79;103259.59;5109081;27;20491;-71
2022/03/20 07:23:13;;;;;;;27.25;13.63;;;;;;;6.96;38.40;103252.81;5113208;27;20047;-71
2022/03/20 07:31:10;;;;;;;27.55;14.40;;;;;;;7.46;37.38;103246.00;5102095;28;20051;-72
2022/03/20 07:33:39;;;;;;;23.15;13.68;;;;;;;7.69;37.00;103239.00;5100040;28;20076;-72
2022/03/20 07:36:06;;;;;;;30.95;17.38;;;;;;;7.81;37.74;103236.41;5113052;28;20039;-72
2022/03/20 07:38:35;;;;;;;28.52;17.65;;;;;;;8.06;37.52;103228.53;5105119;27;20056;-72
2022/03/20 07:41:01;;;;;;;34.60;15.98;;;;;;;8.39;36.30;103228.47;5100548;28;20489;-72
2022/03/20 07:43:28;;;;;;;35.85;16.60;;;;;;;8.55;36.28;103229.31;5112908;28;20108;-72
2022/03/20 07:45:55;;;;;;;31.45;15.80;;;;;;;8.83;35.23;103232.69;5094359;28;20415;-72
2022/03/20 07:48:23;;;;;;;29.10;17.63;;;;;;;9.26;35.55;103231.56;5111928;28;20637;-72
2022/03/20 07:50:51;;;;;;;24.55;14.75;;;;;;;8.77;34.55;103225.72;5104804;28;20055;-71
2022/03/20 07:53:17;;;;;;;29.58;17.30;;;;;;;8.64;35.75;103230.16;5120958;27;20039;-71
2022/03/20 07:55:44;;;;;;;29.27;16.67;;;;;;;8.62;35.29;103225.78;5108928;27;20043;-71
2022/03/20 07:58:10;;;;;;;26.55;15.93;;;;;;;8.16;35.96;103238.13;5094672;28;20036;-71
2022/03/20 08:00:38;;;;;;;32.25;15.82;;;;;;;8.58;35.80;103239.75;5092651;28;20561;-71
2022/03/20 08:03:05;;;;;;;27.15;15.43;;;;;;;8.79;35.28;103224.81;5108824;28;20113;-65
2022/03/20 08:05:31;;;;;;;25.15;15.07;;;;;;;8.75;35.44;103244.06;5104293;27;20148;-65
2022/03/20 08:08:02;;;;;;;32.22;17.90;;;;;;;8.88;35.19;103244.84;5111163;28;20560;-65
2022/03/20 08:10:29;;;;;;;27.20;16.73;;;;;;;8.88;35.48;103223.03;5108294;27;20043;-65
2022/03/20 08:12:55;;;;;;;27.85;15.43;;;;;;;9.05;34.99;103231.69;5099355;27;20105;-65
2022/03/20 08:15:21;;;;;;;28.60;16.63;;;;;;;9.19;35.39;103235.09;5092220;28;20067;-65
2022/03/20 08:17:50;;;;;;;24.27;12.93;;;;;;;9.49;34.49;103219.16;5110170;27;20044;-65
2022/03/20 08:20:16;;;;;;;34.10;15.68;;;;;;;9.63;33.78;103226.91;5109380;28;20046;-65
2022/03/20 08:22:43;;;;;;;28.23;16.38;;;;;;;9.88;33.92;103227.56;5110956;28;20571;-65
2022/03/20 08:25:11;;;;;;;27.55;17.20;;;;;;;9.70;34.03;103213.75;5109776;28;20039;-65
2022/03/20 08:27:44;;;;;;;27.30;16.58;;;;;;;10.57;33.23;103221.56;5111385;28;20059;-65
2022/03/20 08:30:13;;;;;;;28.48;17.38;;;;;;;10.85;32.01;103229.09;5105716;28;20089;-65
2022/03/20 08:32:39;;;;;;;27.10;15.60;;;;;;;10.41;32.24;103220.03;5099875;27;20043;-65
2022/03/20 08:35:07;;;;;;;28.70;14.88;;;;;;;10.79;31.98;103219.53;5110568;28;20071;-65
2022/03/20 08:37:35;;;;;;;24.75;15.45;;;;;;;10.99;31.50;103214.91;5111143;27;20052;-65
2022/03/20 08:40:01;;;;;;;23.90;12.25;;;;;;;11.14;30.02;103208.56;5104574;28;20054;-66
2022/03/20 08:42:29;;;;;;;27.25;15.60;;;;;;;11.66;31.10;103208.59;5110705;27;20505;-65
2022/03/20 08:44:56;;;;;;;20.67;13.30;;;;;;;11.82;29.61;103212.75;5109028;27;20089;-65
2022/03/20 08:47:22;;;;;;;22.92;13.60;;;;;;;11.45;29.55;103203.72;5111180;27;20533;-65
2022/03/20 08:49:49;;;;;;;27.05;16.15;;;;;;;11.95;31.05;103210.75;5099490;28;20067;-65
2022/03/20 08:52:17;;;;;;;21.58;11.93;;;;;;;12.42;28.75;103202.81;5110384;27;20043;-65
2022/03/20 08:54:43;;;;;;;21.10;14.20;;;;;;;12.24;29.93;103208.44;5108477;27;20139;-65
2022/03/20 08:57:10;;;;;;;22.77;14.38;;;;;;;11.77;29.74;103206.69;5109079;27;20059;-65
2022/03/20 08:59:37;;;;;;;24.58;14.90;;;;;;;11.52;29.47;103211.47;5109206;27;20051;-65
2022/03/20 09:02:04;;;;;;;22.35;14.35;;;;;;;12.27;29.32;103202.25;5110577;28;20086;-65
2022/03/20 09:04:30;;;;;;;24.95;15.02;;;;;;;12.18;28.44;103198.03;5106856;28;20172;-65
2022/03/20 09:06:57;;;;;;;22.90;13.07;;;;;;;12.25;28.35;103194.38;5098302;28;20117;-65
2022/03/20 09:09:23;;;;;;;21.35;13.27;;;;;;;11.80;28.12;103200.50;5089550;28;20058;-65
2022/03/20 09:11:49;;;;;;;23.30;12.98;;;;;;;11.59;29.10;103199.97;5090676;28;20044;-65
2022/03/20 09:14:16;;;;;;;22.45;14.30;;;;;;;12.30;29.47;103191.69;5107796;27;20067;-65
2022/03/20 09:19:24;;;;;;;20.92;13.43;;;;;;;12.86;27.55;103179.94;5047855;28;20048;-64
2022/03/20 09:21:50;;;;;;;24.75;15.48;;;;;;;13.29;30.35;103172.81;5083800;28;20040;-64
2022/03/20 09:24:17;;;;;;;24.58;12.52;;;;;;;13.25;27.28;103175.53;5089733;28;20090;-64
2022/03/20 09:26:44;;;;;;;24.00;13.50;;;;;;;13.45;25.78;103162.75;5075966;28;20044;-64
2022/03/20 09:29:10;;;;;;;29.65;13.63;;;;;;;12.58;27.25;103182.31;5067584;28;20064;-64
2022/03/20 09:31:37;;;;;;;25.15;13.07;;;;;;;13.04;27.09;103176.91;5088742;28;20052;-64
2022/03/20 09:34:05;;;;;;;23.52;13.55;;;;;;;12.50;27.37;103193.00;5083326;28;20628;-64
2022/03/20 09:36:31;;;;;;;22.42;13.68;;;;;;;12.07;27.32;103184.22;5076891;28;20122;-64
2022/03/20 09:38:57;;;;;;;20.48;11.90;;;;;;;12.01;27.29;103179.09;5081841;28;20060;-64
2022/03/20 09:41:30;;;;;;;24.77;13.07;;;;;;;12.61;27.09;103184.88;5088904;28;20051;-64
2022/03/20 09:43:56;;;;;;;20.35;12.98;;;;;;;12.78;26.81;103180.13;5090800;28;20096;-65
2022/03/20 09:46:22;;;;;;;21.15;11.15;;;;;;;13.00;26.27;103170.84;5090190;28;20052;-65
2022/03/20 09:48:49;;;;;;;19.38;11.40;;;;;;;13.11;26.00;103162.72;5077088;28;20466;-66
2022/03/20 09:51:18;;;;;;;24.17;13.13;;;;;;;12.36;26.08;103179.25;5072947;28;20064;-66
2022/03/20 09:53:44;;;;;;;20.85;12.93;;;;;;;12.86;27.67;103164.16;5080359;28;20064;-66
2022/03/20 09:56:11;;;;;;;23.27;13.82;;;;;;;12.82;26.73;103194.09;5078201;28;20040;-66
2022/03/20 09:58:38;;;;;;;20.10;12.05;;;;;;;12.80;25.50;103164.28;5090795;28;20499;-66
2022/03/20 10:01:05;;;;;;;22.50;13.15;;;;;;;12.98;27.06;103175.25;5101060;28;20047;-66
2022/03/20 10:03:31;;;;;;;18.60;11.05;;;;;;;12.44;26.52;103163.31;5103721;28;20039;-66
2022/03/20 10:06:05;;;;;;;20.13;12.15;;;;;;;12.42;25.82;103154.56;5104882;28;20553;-66
2022/03/20 10:08:34;;;;;;;18.92;10.23;;;;;;;12.26;26.50;103172.47;5100625;28;20541;-66
2022/03/20 10:11:13;;;;;;;17.67;12.25;;;;;;;12.53;26.78;103166.59;5101132;28;20044;-66
2022/03/20 10:13:39;;;;;;;21.02;11.73;;;;;;;12.97;25.53;103151.59;5108842;28;20123;-66
2022/03/20 10:16:17;;;;;;;19.73;11.73;;;;;;;12.80;25.94;103151.09;5094700;28;20488;-65
2022/03/20 10:18:43;;;;;;;13.73;9.18;;;;;;;13.47;24.76;103161.78;5106040;28;20055;-66
2022/03/20 10:21:11;;;;;;;17.45;11.63;;;;;;;12.95;25.62;103149.00;5108977;28;20071;-66
2022/03/20 10:23:41;;;;;;;21.95;11.82;;;;;;;12.64;26.96;103169.88;5108989;28;20100;-66
2022/03/20 10:26:10;;;;;;;18.33;11.45;;;;;;;12.94;26.51;103149.88;5103026;28;20090;-66
2022/03/20 10:28:39;;;;;;;18.75;9.95;;;;;;;13.18;24.49;103139.72;5107618;28;20059;-66
2022/03/20 10:31:07;;;;;;;14.80;10.27;;;;;;;13.56;26.23;103131.72;5106161;28;20100;-66
2022/03/20 10:33:35;;;;;;;15.38;10.73;;;;;;;13.53;25.04;103134.41;5105131;28;20043;-66
2022/03/20 10:36:10;;;;;;;19.00;11.68;;;;;;;13.80;26.05;103141.59;5095220;28;20043;-66
2022/03/20 10:38:37;;;;;;;21.50;11.02;;;;;;;13.18;24.39;103103.69;5102287;28;20096;-66
2022/03/20 10:41:18;;;;;;;18.35;10.68;;;;;;;12.77;24.71;103115.19;5102600;28;20063;-66
2022/03/20 10:43:45;;;;;;;19.13;8.52;;;;;;;13.29;24.64;103121.88;5109295;28;20209;-66
2022/03/20 10:46:18;;;;;;;25.58;11.23;;;;;;;12.96;25.58;103129.66;5106784;28;20040;-65
2022/03/20 10:48:46;;;;;;;16.40;10.43;;;;;;;13.38;25.05;103122.50;5104575;28;20063;-65
2022/03/20 10:51:13;;;;;;;18.02;10.25;;;;;;;13.66;25.98;103120.00;5108954;28;20519;-65
2022/03/20 10:53:53;;;;;;;18.58;10.80;;;;;;;13.06;24.73;103139.06;5108911;28;20047;-65
2022/03/20 10:56:21;;;;;;;17.15;9.20;;;;;;;13.26;26.03;103099.09;5087980;28;20044;-65
2022/03/20 10:58:48;;;;;;;18.60;11.27;;;;;;;13.44;25.56;103103.91;5086879;28;20047;-66
2022/03/20 11:01:17;;;;;;;17.38;9.52;;;;;;;13.38;24.79;103106.69;5085078;28;20040;-66
2022/03/20 11:03:44;;;;;;;16.25;10.85;;;;;;;13.93;24.41;103115.75;5081466;28;20431;-66
2022/03/20 11:06:13;;;;;;;18.05;10.48;;;;;;;13.33;24.61;103095.41;5081021;28;20553;-66
2022/03/20 11:08:40;;;;;;;14.77;8.13;;;;;;;13.21;24.99;103111.53;5085661;28;20355;-66
2022/03/20 11:11:07;;;;;;;13.70;9.98;;;;;;;13.56;23.99;103100.91;5089992;28;20043;-67
2022/03/20 11:13:35;;;;;;;18.30;10.63;;;;;;;13.30;24.44;103108.66;5088712;28;20113;-67
2022/03/20 11:16:05;;;;;;;27.00;10.90;;;;;;;13.05;24.37;103111.00;5088747;28;20179;-66
2022/03/20 11:18:34;;;;;;;17.63;9.38;;;;;;;13.58;23.78;103100.88;5081453;28;20113;-66
2022/03/20 11:21:03;;;;;;;13.93;8.77;;;;;;;13.51;24.71;103115.13;5068341;28;20078;-66
2022/03/20 11:23:31;;;;;;;16.70;8.73;;;;;;;13.64;24.38;103103.34;5088428;28;20048;-66
2022/03/20 11:25:58;;;;;;;19.23;10.02;;;;;;;13.75;24.49;103076.69;5078922;28;20065;-66
2022/03/20 11:28:24;;;;;;;20.42;9.77;;;;;;;13.91;23.75;103088.53;5084341;28;20048;-66
2022/03/20 11:30:53;;;;;;;12.00;7.95;;;;;;;13.95;22.96;103077.00;5094083;28;20075;-66
2022/03/20 11:33:22;;;;;;;12.85;8.13;;;;;;;13.40;23.78;103065.34;5095704;28;20048;-67
2022/03/20 11:35:49;;;;;;;16.65;9.63;;;;;;;13.68;25.10;103081.28;5094275;28;20046;-67
2022/03/20 11:38:18;;;;;;;12.50;8.02;;;;;;;13.84;25.11;103057.97;5093172;28;20044;-67
2022/03/20 11:41:08;;;;;;;13.23;8.40;;;;;;;13.31;23.24;103062.06;5107799;28;20104;-66
2022/03/20 11:43:35;;;;;;;13.23;8.77;;;;;;;14.19;24.90;103056.97;5104606;28;20070;-66
2022/03/20 11:46:28;;;;;;;11.52;6.85;;;;;;;13.97;22.78;103038.25;5109055;28;20070;-66
2022/03/20 11:49:29;;;;;;;12.70;7.75;;;;;;;14.05;22.65;103028.34;5105144;28;20051;-67
2022/03/20 11:52:05;;;;;;;16.63;8.15;;;;;;;14.38;23.35;103055.50;5085514;28;20085;-67
2022/03/20 11:54:51;;;;;;;17.20;9.02;;;;;;;14.08;23.19;103046.69;5092360;28;20448;-66